createdAt,value
2018-12-17T00:01:21.760Z,33.38
2018-12-17T00:03:50.339Z,33.38
2018-12-17T00:06:19.001Z,33.38
2018-12-17T00:08:47.784Z,33.92
2018-12-17T00:11:16.400Z,33.92
2018-12-17T00:13:45.044Z,33.94
2018-12-17T00:16:13.713Z,33.84
2018-12-17T00:18:42.374Z,33.52
2018-12-17T00:21:11.086Z,33.52
2018-12-17T00:23:39.796Z,33.18
2018-12-17T00:26:08.569Z,33.32
2018-12-17T00:28:37.193Z,33.64
2018-12-17T00:31:05.822Z,33.66
2018-12-17T00:33:34.409Z,32.98
2018-12-17T00:36:03.079Z,33.58
2018-12-17T00:38:31.727Z,33.52
2018-12-17T00:41:00.324Z,32.92
2018-12-17T00:43:29.373Z,32.89
2018-12-17T00:45:58.267Z,33.42
2018-12-17T00:48:27.235Z,32.85
2018-12-17T00:50:55.907Z,32.75
2018-12-17T00:53:24.503Z,33.25
2018-12-17T00:55:53.186Z,33.21
2018-12-17T00:58:21.829Z,33.15
2018-12-17T01:00:50.470Z,32.47
2018-12-17T01:03:19.122Z,33.06
2018-12-17T01:05:47.722Z,32.49
2018-12-17T01:08:16.332Z,32.96
2018-12-17T01:10:45.011Z,32.36
2018-12-17T01:13:13.683Z,32.62
2018-12-17T01:15:42.432Z,32.75
2018-12-17T01:18:11.081Z,32.32
2018-12-17T01:20:39.684Z,32.67
2018-12-17T01:23:08.301Z,32.21
2018-12-17T01:25:36.914Z,32.13
2018-12-17T01:28:05.564Z,32.50
2018-12-17T01:30:34.245Z,32.21
2018-12-17T01:33:03.035Z,31.75
2018-12-17T01:35:31.630Z,32.36
2018-12-17T01:38:00.503Z,31.63
2018-12-17T01:40:29.176Z,31.65
2018-12-17T01:42:57.937Z,32.17
2018-12-17T01:45:26.552Z,31.74
2018-12-17T01:47:55.300Z,31.93
2018-12-17T01:50:23.951Z,31.77
2018-12-17T01:52:52.646Z,31.27
2018-12-17T01:55:21.428Z,31.27
2018-12-17T01:57:50.063Z,31.12
2018-12-17T02:00:18.921Z,31.26
2018-12-17T02:02:47.646Z,31.18
2018-12-17T02:05:16.395Z,31.52
2018-12-17T02:07:45.028Z,30.96
2018-12-17T02:10:13.676Z,31.16
2018-12-17T02:12:42.333Z,31.28
2018-12-17T02:15:10.988Z,31.31
2018-12-17T02:17:39.612Z,31.32
2018-12-17T02:20:08.511Z,30.64
2018-12-17T02:22:37.156Z,30.62
2018-12-17T02:25:06.018Z,30.99
2018-12-17T02:27:35.604Z,30.56
2018-12-17T02:30:04.689Z,30.66
2018-12-17T02:32:33.303Z,30.84
2018-12-17T02:35:01.911Z,30.26
2018-12-17T02:37:30.549Z,30.80
2018-12-17T02:39:59.261Z,30.62
2018-12-17T02:42:27.839Z,30.21
2018-12-17T02:44:56.468Z,30.42
2018-12-17T02:47:24.995Z,30.64
2018-12-17T02:49:53.662Z,30.05
2018-12-17T02:52:22.307Z,30.53
2018-12-17T02:54:51.223Z,30.33
2018-12-17T02:57:19.835Z,30.06
2018-12-17T02:59:48.413Z,29.76
2018-12-17T03:02:17.015Z,30.02
2018-12-17T03:04:45.615Z,29.77
2018-12-17T03:07:14.187Z,29.74
2018-12-17T03:09:42.743Z,29.55
2018-12-17T03:12:11.383Z,29.59
2018-12-17T03:14:40.589Z,29.61
2018-12-17T03:17:09.344Z,30.02
2018-12-17T03:19:37.947Z,29.97
2018-12-17T03:22:06.682Z,29.24
2018-12-17T03:24:35.308Z,29.89
2018-12-17T03:27:03.959Z,29.29
2018-12-17T03:29:32.762Z,29.87
2018-12-17T03:32:01.409Z,29.85
2018-12-17T03:34:30.029Z,29.21
2018-12-17T03:36:58.580Z,29.70
2018-12-17T03:39:27.189Z,29.14
2018-12-17T03:41:55.779Z,29.18
2018-12-17T03:44:24.463Z,29.02
2018-12-17T03:46:53.085Z,29.22
2018-12-17T03:49:21.679Z,29.43
2018-12-17T03:51:50.272Z,29.27
2018-12-17T03:54:18.894Z,29.23
2018-12-17T03:56:47.527Z,28.92
2018-12-17T03:59:16.173Z,28.84
2018-12-17T04:01:44.800Z,29.31
2018-12-17T04:04:13.445Z,28.66
2018-12-17T04:06:42.103Z,29.23
2018-12-17T04:09:11.064Z,29.26
2018-12-17T04:11:39.687Z,28.95
2018-12-17T04:14:08.335Z,28.61
2018-12-17T04:16:36.927Z,28.53
2018-12-17T04:19:05.580Z,28.58
2018-12-17T04:21:34.188Z,28.63
2018-12-17T04:24:02.784Z,28.49
2018-12-17T04:26:31.403Z,28.95
2018-12-17T04:29:06.585Z,28.32
2018-12-17T04:31:30.985Z,28.68
2018-12-17T04:33:59.613Z,28.35
2018-12-17T04:36:28.203Z,28.26
2018-12-17T04:38:56.846Z,28.31
2018-12-17T04:41:25.609Z,28.66
2018-12-17T04:43:54.268Z,28.11
2018-12-17T04:46:22.964Z,28.71
2018-12-17T04:48:51.548Z,28.63
2018-12-17T04:51:20.312Z,28.00
2018-12-17T04:53:48.979Z,28.56
2018-12-17T04:56:17.789Z,28.21
2018-12-17T04:58:46.423Z,27.93
2018-12-17T05:01:15.080Z,27.96
2018-12-17T05:03:43.684Z,28.46
2018-12-17T05:06:12.368Z,28.02
2018-12-17T05:08:40.974Z,28.24
2018-12-17T05:11:09.688Z,28.58
2018-12-17T05:13:38.353Z,28.40
2018-12-17T05:16:07.062Z,27.88
2018-12-17T05:18:35.615Z,28.05
2018-12-17T05:21:05.392Z,28.12
2018-12-17T05:23:33.971Z,28.04
2018-12-17T05:26:02.552Z,28.54
2018-12-17T05:28:31.190Z,27.88
2018-12-17T05:30:59.775Z,28.43
2018-12-17T05:33:28.512Z,27.91
2018-12-17T05:35:57.592Z,27.89
2018-12-17T05:38:26.609Z,28.44
2018-12-17T05:40:55.406Z,27.89
2018-12-17T05:43:24.009Z,28.36
2018-12-17T05:45:52.750Z,28.57
2018-12-17T05:48:21.407Z,28.24
2018-12-17T05:50:50.088Z,27.97
2018-12-17T05:53:18.800Z,27.87
2018-12-17T05:55:47.470Z,27.76
2018-12-17T05:58:16.074Z,28.21
2018-12-17T06:00:44.808Z,28.18
2018-12-17T06:03:13.703Z,27.69
2018-12-17T06:05:42.292Z,27.51
2018-12-17T06:08:13.150Z,27.59
2018-12-17T06:10:41.787Z,27.60
2018-12-17T06:13:10.399Z,27.42
2018-12-17T06:15:39.047Z,27.97
2018-12-17T06:18:07.620Z,27.51
2018-12-17T06:20:36.228Z,27.34
2018-12-17T06:23:04.874Z,27.33
2018-12-17T06:25:34.047Z,27.98
2018-12-17T06:28:02.623Z,27.93
2018-12-17T06:30:31.211Z,27.87
2018-12-17T06:32:59.885Z,27.27
2018-12-17T06:35:28.494Z,27.88
2018-12-17T06:37:57.141Z,27.82
2018-12-17T06:40:25.702Z,27.82
2018-12-17T06:42:54.312Z,27.23
2018-12-17T06:45:22.919Z,27.22
2018-12-17T06:47:51.568Z,27.71
2018-12-17T06:50:20.191Z,27.13
2018-12-17T06:52:48.781Z,27.06
2018-12-17T06:55:17.443Z,27.30
2018-12-17T06:57:46.446Z,27.65
2018-12-17T07:00:15.124Z,27.00
2018-12-17T07:02:43.776Z,27.42
2018-12-17T07:05:12.443Z,27.07
2018-12-17T07:07:41.076Z,27.16
2018-12-17T07:10:09.665Z,27.21
2018-12-17T07:12:38.238Z,26.90
2018-12-17T07:15:07.688Z,27.44
2018-12-17T07:17:36.356Z,27.35
2018-12-17T07:20:05.259Z,27.45
2018-12-17T07:22:33.878Z,27.41
2018-12-17T07:25:02.637Z,27.44
2018-12-17T07:27:31.280Z,26.84
2018-12-17T07:29:59.854Z,26.88
2018-12-17T07:32:28.533Z,27.25
2018-12-17T07:34:57.391Z,26.93
2018-12-17T07:37:26.016Z,26.78
2018-12-17T07:39:54.784Z,27.16
2018-12-17T07:42:23.408Z,27.14
2018-12-17T07:44:52.213Z,26.64
2018-12-17T07:47:20.826Z,26.71
2018-12-17T07:49:49.506Z,27.16
2018-12-17T07:52:18.087Z,27.17
2018-12-17T07:54:46.795Z,26.92
2018-12-17T07:57:15.483Z,27.64
2018-12-17T07:59:44.161Z,27.71
2018-12-17T08:02:12.852Z,28.22
2018-12-17T08:04:41.523Z,28.27
2018-12-17T08:07:10.259Z,29.16
2018-12-17T08:09:39.004Z,29.55
2018-12-17T08:12:07.886Z,30.05
2018-12-17T08:14:36.705Z,29.87
2018-12-17T08:17:05.343Z,30.26
2018-12-17T08:19:34.152Z,31.02
2018-12-17T08:22:03.010Z,31.08
2018-12-17T08:24:31.861Z,31.13
2018-12-17T08:27:00.680Z,31.42
2018-12-17T08:29:29.440Z,31.08
2018-12-17T08:31:58.187Z,30.94
2018-12-17T08:34:27.187Z,30.97
2018-12-17T08:36:56.191Z,30.99
2018-12-17T08:39:24.888Z,31.19
2018-12-17T08:41:53.781Z,31.40
2018-12-17T08:44:22.556Z,31.46
2018-12-17T08:46:51.176Z,30.74
2018-12-17T08:49:20.204Z,30.79
2018-12-17T08:51:48.800Z,31.21
2018-12-17T08:54:17.498Z,31.03
2018-12-17T08:56:46.127Z,31.36
2018-12-17T08:59:14.744Z,30.90
2018-12-17T09:01:43.614Z,31.23
2018-12-17T09:04:12.375Z,31.42
2018-12-17T09:06:41.199Z,30.65
2018-12-17T09:09:10.681Z,30.64
2018-12-17T09:11:39.702Z,31.09
2018-12-17T09:14:08.526Z,30.75
2018-12-17T09:16:37.275Z,30.80
2018-12-17T09:19:06.032Z,30.85
2018-12-17T09:21:34.891Z,31.04
2018-12-17T09:24:03.823Z,30.49
2018-12-17T09:26:32.681Z,30.38
2018-12-17T09:29:01.514Z,30.58
2018-12-17T09:31:30.319Z,30.97
2018-12-17T09:33:59.217Z,30.88
2018-12-17T09:36:28.003Z,30.30
2018-12-17T09:38:56.827Z,30.85
2018-12-17T09:41:25.528Z,30.32
2018-12-17T09:43:54.410Z,30.22
2018-12-17T09:46:23.311Z,30.22
2018-12-17T09:48:52.331Z,30.41
2018-12-17T09:51:21.394Z,30.31
2018-12-17T09:53:50.131Z,30.13
2018-12-17T09:56:18.887Z,30.66
2018-12-17T09:58:47.791Z,30.58
2018-12-17T10:01:16.784Z,30.51
2018-12-17T10:03:45.490Z,29.96
2018-12-17T10:06:14.323Z,30.60
2018-12-17T10:08:43.283Z,29.91
2018-12-17T10:11:12.019Z,30.45
2018-12-17T10:13:40.717Z,30.36
2018-12-17T10:16:09.634Z,29.72
2018-12-17T10:18:38.310Z,29.81
2018-12-17T10:21:06.986Z,30.21
2018-12-17T10:23:36.020Z,29.77
2018-12-17T10:26:04.795Z,30.05
2018-12-17T10:28:33.789Z,29.50
2018-12-17T10:31:03.099Z,30.09
2018-12-17T10:33:31.995Z,29.78
2018-12-17T10:36:00.643Z,29.34
2018-12-17T10:38:29.417Z,29.29
2018-12-17T10:40:58.125Z,29.75
2018-12-17T10:43:26.780Z,29.27
2018-12-17T10:45:55.384Z,29.20
2018-12-17T10:48:24.085Z,29.75
2018-12-17T10:50:53.092Z,29.59
2018-12-17T10:53:21.856Z,29.10
2018-12-17T10:55:50.663Z,29.53
2018-12-17T10:58:19.333Z,28.91
2018-12-17T11:00:53.388Z,29.45
2018-12-17T11:03:26.223Z,29.46
2018-12-17T11:05:55.575Z,28.84
2018-12-17T11:08:24.415Z,28.81
2018-12-17T11:10:53.272Z,28.72
2018-12-17T11:13:21.904Z,28.68
2018-12-17T11:15:51.056Z,29.17
2018-12-17T11:18:19.927Z,28.52
2018-12-17T11:20:48.888Z,28.58
2018-12-17T11:23:18.166Z,28.51
2018-12-17T11:25:46.971Z,28.43
2018-12-17T11:28:15.601Z,28.81
2018-12-17T11:30:46.689Z,28.26
2018-12-17T11:33:15.208Z,28.27
2018-12-17T11:35:44.178Z,28.65
2018-12-17T11:38:13.037Z,28.69
2018-12-17T11:40:42.171Z,28.26
2018-12-17T11:43:11.048Z,28.03
2018-12-17T11:45:40.114Z,28.00
2018-12-17T11:48:09.099Z,28.51
2018-12-17T11:50:37.808Z,28.00
2018-12-17T11:53:06.823Z,27.90
2018-12-17T11:55:35.598Z,28.25
2018-12-17T11:58:12.884Z,28.26
2018-12-17T12:00:46.288Z,27.95
2018-12-17T12:03:16.755Z,27.68
2018-12-17T12:05:45.856Z,27.74
2018-12-17T12:08:14.763Z,27.53
2018-12-17T12:10:43.604Z,27.57
2018-12-17T12:13:12.267Z,27.40
2018-12-17T12:15:40.882Z,27.38
2018-12-17T12:18:09.823Z,27.73
2018-12-17T12:20:38.453Z,27.36
2018-12-17T12:23:07.223Z,27.81
2018-12-17T12:25:36.148Z,27.56
2018-12-17T12:28:06.015Z,27.67
2018-12-17T12:30:34.786Z,27.76
2018-12-17T12:33:03.627Z,27.15
2018-12-17T12:35:32.501Z,27.66
2018-12-17T12:38:01.500Z,27.41
2018-12-17T12:40:30.324Z,26.97
2018-12-17T12:42:59.203Z,27.59
2018-12-17T12:45:27.968Z,26.91
2018-12-17T12:47:56.904Z,26.89
2018-12-17T12:50:25.809Z,26.88
2018-12-17T12:52:54.773Z,27.27
2018-12-17T12:55:23.659Z,27.33
2018-12-17T12:57:52.471Z,27.29
2018-12-17T13:00:21.369Z,26.72
2018-12-17T13:02:50.079Z,26.59
2018-12-17T13:05:18.930Z,27.03
2018-12-17T13:07:47.874Z,26.50
2018-12-17T13:10:16.633Z,27.13
2018-12-17T13:12:45.380Z,26.91
2018-12-17T13:15:14.353Z,26.88
2018-12-17T13:17:43.278Z,26.49
2018-12-17T13:20:12.089Z,26.49
2018-12-17T13:22:41.011Z,26.44
2018-12-17T13:25:14.974Z,27.18
2018-12-17T13:27:43.656Z,26.41
2018-12-17T13:30:12.683Z,26.85
2018-12-17T13:32:41.443Z,26.78
2018-12-17T13:35:10.596Z,26.73
2018-12-17T13:37:39.226Z,26.20
2018-12-17T13:40:09.777Z,26.16
2018-12-17T13:42:38.449Z,26.69
2018-12-17T13:45:07.691Z,26.43
2018-12-17T13:47:36.449Z,26.55
2018-12-17T13:50:11.918Z,26.60
2018-12-17T13:52:46.008Z,25.93
2018-12-17T13:55:15.236Z,26.58
2018-12-17T13:57:44.136Z,26.28
2018-12-17T14:00:13.638Z,26.53
2018-12-17T14:02:42.476Z,25.89
2018-12-17T14:05:11.430Z,26.22
2018-12-17T14:07:40.453Z,26.33
2018-12-17T14:10:16.017Z,26.38
2018-12-17T14:12:45.050Z,26.03
2018-12-17T14:15:14.007Z,25.79
2018-12-17T14:17:47.157Z,25.87
2018-12-17T14:20:21.242Z,25.74
2018-12-17T14:22:50.103Z,26.32
2018-12-17T14:25:19.008Z,25.69
2018-12-17T14:27:48.552Z,26.13
2018-12-17T14:30:17.289Z,25.64
2018-12-17T14:32:46.078Z,26.09
2018-12-17T14:35:15.009Z,26.17
2018-12-17T14:37:49.129Z,25.84
2018-12-17T14:40:18.163Z,25.61
2018-12-17T14:42:46.931Z,25.42
2018-12-17T14:45:15.942Z,25.86
2018-12-17T14:47:44.873Z,26.06
2018-12-17T14:50:13.919Z,26.00
2018-12-17T14:52:42.661Z,25.94
2018-12-17T14:55:11.835Z,25.85
2018-12-17T14:57:40.674Z,25.83
2018-12-17T15:00:09.956Z,25.33
2018-12-17T15:02:38.777Z,25.76
2018-12-17T15:05:08.077Z,25.78
2018-12-17T15:07:36.992Z,25.48
2018-12-17T15:10:06.210Z,25.34
2018-12-17T15:12:35.068Z,25.81
2018-12-17T15:15:04.925Z,25.78
2018-12-17T15:17:33.606Z,25.55
2018-12-17T15:20:02.848Z,25.19
2018-12-17T15:22:31.707Z,25.12
2018-12-17T15:25:00.689Z,25.07
2018-12-17T15:27:29.429Z,25.60
2018-12-17T15:29:58.397Z,25.47
2018-12-17T15:32:27.470Z,25.67
2018-12-17T15:34:56.430Z,25.57
2018-12-17T15:37:25.475Z,25.05
2018-12-17T15:39:54.511Z,25.47
2018-12-17T15:42:23.574Z,25.52
2018-12-17T15:44:52.563Z,25.23
2018-12-17T15:47:21.270Z,25.45
2018-12-17T15:49:50.180Z,25.39
2018-12-17T15:52:19.341Z,24.82
2018-12-17T15:54:48.192Z,24.92
2018-12-17T15:57:17.184Z,24.73
2018-12-17T15:59:46.024Z,25.38
2018-12-17T16:02:14.953Z,24.70
2018-12-17T16:04:43.936Z,24.84
2018-12-17T16:07:12.915Z,24.74
2018-12-17T16:09:41.840Z,25.11
2018-12-17T16:12:11.207Z,24.71
2018-12-17T16:14:40.111Z,24.94
2018-12-17T16:17:09.049Z,24.58
2018-12-17T16:19:37.762Z,24.67
2018-12-17T16:22:06.844Z,24.61
2018-12-17T16:24:35.681Z,24.54
2018-12-17T16:27:04.793Z,24.55
2018-12-17T16:29:33.672Z,24.63
2018-12-17T16:32:02.482Z,24.55
2018-12-17T16:34:31.108Z,25.08
2018-12-17T16:37:00.055Z,25.09
2018-12-17T16:39:29.130Z,25.00
2018-12-17T16:41:57.732Z,25.10
2018-12-17T16:44:26.739Z,24.96
2018-12-17T16:46:55.513Z,25.06
2018-12-17T16:49:24.489Z,24.81
2018-12-17T16:51:53.412Z,25.08
2018-12-17T16:54:22.683Z,24.80
2018-12-17T16:56:51.793Z,24.72
2018-12-17T16:59:20.938Z,24.95
2018-12-17T17:01:49.818Z,25.00
2018-12-17T17:04:18.445Z,24.94
2018-12-17T17:06:47.337Z,24.35
2018-12-17T17:09:16.251Z,24.91
2018-12-17T17:11:45.200Z,24.34
2018-12-17T17:14:14.036Z,24.32
2018-12-17T17:16:42.961Z,24.31
2018-12-17T17:19:12.166Z,24.91
2018-12-17T17:21:41.015Z,24.78
2018-12-17T17:24:09.928Z,24.78
2018-12-17T17:26:38.715Z,24.58
2018-12-17T17:29:07.677Z,24.86
2018-12-17T17:31:36.605Z,25.08
2018-12-17T17:34:05.836Z,24.29
2018-12-17T17:36:34.828Z,24.77
2018-12-17T17:39:04.763Z,24.10
2018-12-17T17:41:33.776Z,24.22
2018-12-17T17:44:03.608Z,24.48
2018-12-17T17:46:32.283Z,24.72
2018-12-17T17:49:02.577Z,25.24
2018-12-17T17:51:31.279Z,25.81
2018-12-17T17:53:59.931Z,26.23
2018-12-17T17:56:28.621Z,27.93
2018-12-17T17:58:57.265Z,27.97
2018-12-17T18:01:25.963Z,28.49
2018-12-17T18:03:54.672Z,28.99
2018-12-17T18:06:23.369Z,28.82
2018-12-17T18:08:52.195Z,28.40
2018-12-17T18:11:20.873Z,28.30
2018-12-17T18:13:49.578Z,28.25
2018-12-17T18:16:18.413Z,27.82
2018-12-17T18:18:47.196Z,28.22
2018-12-17T18:21:15.940Z,27.57
2018-12-17T18:23:44.642Z,27.80
2018-12-17T18:26:13.384Z,27.49
2018-12-17T18:28:42.291Z,27.98
2018-12-17T18:31:11.214Z,27.42
2018-12-17T18:33:40.257Z,27.84
2018-12-17T18:36:09.347Z,27.66
2018-12-17T18:38:38.472Z,27.47
2018-12-17T18:41:07.582Z,27.29
2018-12-17T18:43:36.429Z,26.86
2018-12-17T18:46:05.504Z,26.51
2018-12-17T18:48:35.106Z,26.86
2018-12-17T18:51:03.922Z,26.96
2018-12-17T18:53:32.898Z,26.96
2018-12-17T18:56:01.845Z,26.32
2018-12-17T18:58:30.814Z,26.39
2018-12-17T19:01:00.199Z,26.22
2018-12-17T19:03:29.278Z,26.58
2018-12-17T19:05:58.369Z,26.01
2018-12-17T19:08:27.276Z,26.55
2018-12-17T19:10:56.267Z,26.52
2018-12-17T19:13:25.309Z,25.98
2018-12-17T19:15:54.366Z,25.93
2018-12-17T19:18:24.430Z,25.82
2018-12-17T19:20:53.535Z,25.97
2018-12-17T19:23:22.614Z,26.35
2018-12-17T19:25:51.554Z,25.82
2018-12-17T19:28:20.585Z,26.25
2018-12-17T19:30:49.391Z,25.66
2018-12-17T19:33:18.557Z,25.67
2018-12-17T19:35:47.545Z,26.15
2018-12-17T19:38:16.263Z,25.75
2018-12-17T19:40:45.304Z,25.53
2018-12-17T19:43:14.058Z,25.70
2018-12-17T19:45:43.040Z,25.50
2018-12-17T19:48:12.217Z,26.04
2018-12-17T19:50:41.151Z,26.11
2018-12-17T19:53:10.086Z,25.65
2018-12-17T19:55:39.204Z,25.59
2018-12-17T19:58:08.237Z,25.41
2018-12-17T20:00:37.225Z,25.48
2018-12-17T20:03:06.514Z,25.46
2018-12-17T20:05:35.572Z,25.44
2018-12-17T20:08:04.778Z,25.46
2018-12-17T20:10:33.515Z,25.38
2018-12-17T20:13:02.470Z,25.38
2018-12-17T20:15:31.429Z,25.36
2018-12-17T20:18:00.355Z,25.85
2018-12-17T20:20:29.216Z,25.31
2018-12-17T20:22:58.178Z,25.86
2018-12-17T20:25:28.150Z,25.36
2018-12-17T20:27:57.336Z,25.59
2018-12-17T20:30:26.322Z,25.78
2018-12-17T20:32:55.319Z,25.88
2018-12-17T20:35:24.325Z,25.84
2018-12-17T20:37:53.316Z,25.29
2018-12-17T20:40:22.496Z,25.38
2018-12-17T20:42:51.457Z,25.89
2018-12-17T20:45:20.537Z,25.38
2018-12-17T20:47:49.475Z,25.84
2018-12-17T20:50:18.394Z,25.86
2018-12-17T20:52:47.274Z,25.35
2018-12-17T20:55:16.411Z,25.80
2018-12-17T20:57:45.274Z,25.82
2018-12-17T21:00:14.411Z,25.26
2018-12-17T21:02:43.279Z,25.35
2018-12-17T21:05:12.477Z,25.62
2018-12-17T21:07:41.606Z,25.47
2018-12-17T21:10:10.744Z,25.25
2018-12-17T21:12:39.678Z,25.85
2018-12-17T21:15:08.835Z,25.36
2018-12-17T21:17:37.788Z,25.88
2018-12-17T21:20:07.242Z,25.25
2018-12-17T21:22:36.134Z,25.85
2018-12-17T21:25:05.321Z,25.89
2018-12-17T21:27:34.435Z,25.33
2018-12-17T21:30:03.457Z,25.42
2018-12-17T21:32:32.632Z,25.25
2018-12-17T21:35:01.768Z,25.24
2018-12-17T21:37:30.700Z,25.24
2018-12-17T21:39:59.860Z,25.81
2018-12-17T21:42:28.833Z,25.35
2018-12-17T21:44:57.844Z,25.33
2018-12-17T21:47:26.668Z,25.78
2018-12-17T21:49:55.738Z,25.69
2018-12-17T21:52:25.600Z,25.79
2018-12-17T21:54:54.845Z,25.39
2018-12-17T21:57:23.715Z,25.58
2018-12-17T21:59:52.781Z,25.81
2018-12-17T22:02:21.931Z,25.80
2018-12-17T22:04:50.639Z,25.27
2018-12-17T22:07:19.850Z,25.26
2018-12-17T22:09:48.732Z,25.84
2018-12-17T22:12:17.818Z,25.17
2018-12-17T22:14:46.728Z,25.82
2018-12-17T22:17:15.818Z,25.70
2018-12-17T22:19:44.688Z,25.80
2018-12-17T22:22:14.462Z,25.28
2018-12-17T22:24:43.364Z,25.35
2018-12-17T22:27:12.256Z,25.85
2018-12-17T22:29:41.257Z,25.72
2018-12-17T22:32:10.093Z,25.65
2018-12-17T22:34:38.884Z,25.37
2018-12-17T22:37:07.930Z,25.60
2018-12-17T22:39:37.040Z,25.95
2018-12-17T22:42:06.156Z,25.88
2018-12-17T22:44:34.853Z,25.45
2018-12-17T22:47:03.619Z,25.82
2018-12-17T22:49:32.255Z,25.98
2018-12-17T22:52:01.219Z,25.99
2018-12-17T22:54:30.017Z,25.73
2018-12-17T22:56:59.092Z,25.42
2018-12-17T22:59:28.060Z,26.03
2018-12-17T23:04:24.569Z,25.48
2018-12-17T23:06:53.440Z,25.46
2018-12-17T23:09:20.888Z,25.47
2018-12-17T23:12:05.949Z,25.99
2018-12-17T23:14:45.996Z,25.46
2018-12-17T23:17:25.811Z,26.07
2018-12-17T23:19:54.881Z,25.83
2018-12-17T23:22:23.853Z,26.04
2018-12-17T23:24:52.669Z,25.81
2018-12-17T23:27:21.488Z,25.71
2018-12-17T23:29:50.608Z,25.47
2018-12-17T23:32:19.486Z,25.69
2018-12-17T23:34:48.406Z,25.65
2018-12-17T23:37:17.277Z,25.61
2018-12-17T23:39:45.951Z,26.19
2018-12-17T23:42:14.789Z,25.61
2018-12-17T23:44:43.504Z,26.05
2018-12-17T23:47:12.545Z,25.52
2018-12-17T23:49:41.449Z,26.10
2018-12-17T23:52:10.324Z,26.18
2018-12-17T23:54:39.370Z,25.71
2018-12-17T23:57:08.344Z,26.14
2018-12-17T23:59:37.291Z,26.25
